createdAt,value
2019-03-30T00:00:53.643Z,5.13
2019-03-30T00:03:26.844Z,6.27
2019-03-30T00:06:00.039Z,5.43
2019-03-30T00:08:33.245Z,5.50
2019-03-30T00:11:06.462Z,5.00
2019-03-30T00:13:39.636Z,5.10
2019-03-30T00:16:12.839Z,5.40
2019-03-30T00:18:46.019Z,5.37
2019-03-30T00:21:19.206Z,5.53
2019-03-30T00:23:52.433Z,4.33
2019-03-30T00:26:25.613Z,5.07
2019-03-30T00:28:58.786Z,5.00
2019-03-30T00:31:31.978Z,4.97
2019-03-30T00:34:05.310Z,5.00
2019-03-30T00:36:38.490Z,5.70
2019-03-30T00:39:11.658Z,5.20
2019-03-30T00:41:44.859Z,5.27
2019-03-30T00:44:18.113Z,5.30
2019-03-30T00:46:51.307Z,5.13
2019-03-30T00:49:24.542Z,5.73
2019-03-30T00:51:57.727Z,5.30
2019-03-30T00:54:30.903Z,6.03
2019-03-30T00:57:04.088Z,5.67
2019-03-30T00:59:37.294Z,6.10
2019-03-30T01:02:10.480Z,6.27
2019-03-30T01:04:43.663Z,6.07
2019-03-30T01:07:16.851Z,6.23
2019-03-30T01:09:50.033Z,6.07
2019-03-30T01:12:23.221Z,5.63
2019-03-30T01:14:56.412Z,7.27
2019-03-30T01:17:29.587Z,6.33
2019-03-30T01:20:03.808Z,6.60
2019-03-30T01:22:37.163Z,5.93
2019-03-30T01:25:10.336Z,6.03
2019-03-30T01:27:43.588Z,6.50
2019-03-30T01:30:23.021Z,6.47
2019-03-30T01:32:51.691Z,6.83
2019-03-30T01:35:25.036Z,6.70
2019-03-30T01:37:58.338Z,6.13
2019-03-30T01:40:31.507Z,5.90
2019-03-30T01:43:04.701Z,5.93
2019-03-30T01:45:37.876Z,6.07
2019-03-30T01:48:11.054Z,6.23
2019-03-30T01:50:44.233Z,6.30
2019-03-30T01:53:17.418Z,6.70
2019-03-30T01:55:50.606Z,6.87
2019-03-30T01:58:23.866Z,6.57
2019-03-30T02:00:57.038Z,6.83
2019-03-30T02:03:30.231Z,7.17
2019-03-30T02:06:03.491Z,5.70
2019-03-30T02:08:36.681Z,6.93
2019-03-30T02:11:09.861Z,6.83
2019-03-30T02:13:43.042Z,6.53
2019-03-30T02:16:16.222Z,6.47
2019-03-30T02:18:49.524Z,7.00
2019-03-30T02:21:22.723Z,7.27
2019-03-30T02:23:55.916Z,7.17
2019-03-30T02:26:29.104Z,7.20
2019-03-30T02:29:02.310Z,7.50
2019-03-30T02:31:35.481Z,7.17
2019-03-30T02:34:08.668Z,7.00
2019-03-30T02:36:41.848Z,7.00
2019-03-30T02:39:15.047Z,7.50
2019-03-30T02:41:48.357Z,7.43
2019-03-30T02:44:21.669Z,7.40
2019-03-30T02:46:54.868Z,7.57
2019-03-30T02:49:28.183Z,6.80
2019-03-30T02:52:01.408Z,7.10
2019-03-30T02:54:34.713Z,6.90
2019-03-30T02:57:07.993Z,6.90
2019-03-30T02:59:41.185Z,7.37
2019-03-30T03:02:14.343Z,7.40
2019-03-30T03:04:47.534Z,7.63
2019-03-30T03:07:20.740Z,7.73
2019-03-30T03:09:53.926Z,7.60
2019-03-30T03:12:27.101Z,7.27
2019-03-30T03:15:00.402Z,7.53
2019-03-30T03:17:33.563Z,7.23
2019-03-30T03:20:06.756Z,7.70
2019-03-30T03:22:39.923Z,6.93
2019-03-30T03:25:13.126Z,7.33
2019-03-30T03:27:46.494Z,7.83
2019-03-30T03:33:35.198Z,7.73
2019-03-30T03:36:08.894Z,8.37
2019-03-30T03:38:42.462Z,7.77
2019-03-30T03:41:16.117Z,8.30
2019-03-30T03:43:49.719Z,8.73
2019-03-30T03:46:23.374Z,7.73
2019-03-30T03:48:56.982Z,8.97
2019-03-30T03:51:30.631Z,8.33
2019-03-30T03:54:04.269Z,8.33
2019-03-30T03:56:38.250Z,8.27
2019-03-30T03:59:11.852Z,8.33
2019-03-30T04:01:45.412Z,8.90
2019-03-30T04:04:20.588Z,8.27
2019-03-30T04:06:54.173Z,8.67
2019-03-30T04:09:28.481Z,9.73
2019-03-30T04:12:02.053Z,8.47
2019-03-30T04:14:35.750Z,8.73
2019-03-30T04:17:09.438Z,8.93
2019-03-30T04:19:43.048Z,8.93
2019-03-30T04:22:16.617Z,8.30
2019-03-30T04:24:50.182Z,7.93
2019-03-30T04:27:23.892Z,8.23
2019-03-30T04:29:57.489Z,9.07
2019-03-30T04:32:31.090Z,8.83
2019-03-30T04:35:04.799Z,8.13
2019-03-30T04:37:38.466Z,9.17
2019-03-30T04:40:12.006Z,9.40
2019-03-30T04:42:45.654Z,8.67
2019-03-30T04:45:19.257Z,8.37
2019-03-30T04:47:52.871Z,9.57
2019-03-30T04:50:26.519Z,9.27
2019-03-30T04:53:00.114Z,8.30
2019-03-30T04:55:33.800Z,9.20
2019-03-30T04:58:09.223Z,9.50
2019-03-30T05:00:42.694Z,9.77
2019-03-30T05:03:16.599Z,8.60
2019-03-30T05:05:50.136Z,9.00
2019-03-30T05:08:23.735Z,9.30
2019-03-30T05:10:57.281Z,8.37
2019-03-30T05:13:30.909Z,8.63
2019-03-30T05:16:04.489Z,9.07
2019-03-30T05:18:38.053Z,9.00
2019-03-30T05:21:11.621Z,9.07
2019-03-30T05:23:45.269Z,8.60
2019-03-30T05:26:18.885Z,9.33
2019-03-30T05:28:52.529Z,8.20
2019-03-30T05:31:26.202Z,8.53
2019-03-30T05:33:59.846Z,8.77
2019-03-30T05:36:33.413Z,8.60
2019-03-30T05:39:07.009Z,9.00
2019-03-30T05:41:40.625Z,9.10
2019-03-30T05:44:14.273Z,8.83
2019-03-30T05:46:47.840Z,8.50
2019-03-30T05:49:21.478Z,8.87
2019-03-30T05:51:55.092Z,7.87
2019-03-30T05:54:28.662Z,7.93
2019-03-30T05:57:02.308Z,7.83
2019-03-30T05:59:35.957Z,8.87
2019-03-30T06:02:09.497Z,7.80
2019-03-30T06:04:43.076Z,8.37
2019-03-30T06:07:16.711Z,8.03
2019-03-30T06:09:50.466Z,8.53
2019-03-30T06:12:24.011Z,8.00
2019-03-30T06:14:57.651Z,7.97
2019-03-30T06:17:31.250Z,8.70
2019-03-30T06:20:04.225Z,7.43
2019-03-30T06:22:40.677Z,8.07
2019-03-30T06:25:13.058Z,7.60
2019-03-30T06:27:46.715Z,7.00
2019-03-30T06:30:24.325Z,6.90
2019-03-30T06:32:57.888Z,7.37
2019-03-30T06:35:31.442Z,6.80
2019-03-30T06:38:05.067Z,6.80
2019-03-30T06:40:38.636Z,7.63
2019-03-30T06:43:12.197Z,7.33
2019-03-30T06:45:45.752Z,7.47
2019-03-30T06:48:19.386Z,7.53
2019-03-30T06:50:52.951Z,7.67
2019-03-30T06:53:26.601Z,6.97
2019-03-30T06:56:00.162Z,7.57
2019-03-30T06:58:33.752Z,7.43
2019-03-30T07:01:07.361Z,7.07
2019-03-30T07:03:41.003Z,6.93
2019-03-30T07:06:14.642Z,7.07
2019-03-30T07:08:48.290Z,7.93
2019-03-30T07:11:22.264Z,7.70
2019-03-30T07:13:57.959Z,6.90
2019-03-30T07:16:32.060Z,7.30
2019-03-30T07:19:05.638Z,7.40
2019-03-30T07:21:39.790Z,8.10
2019-03-30T07:24:13.745Z,7.57
2019-03-30T07:26:47.363Z,7.55
2019-03-30T07:29:21.020Z,7.97
2019-03-30T07:31:54.634Z,7.83
2019-03-30T07:34:28.270Z,8.27
2019-03-30T07:37:01.835Z,7.65
2019-03-30T07:39:35.496Z,7.30
2019-03-30T07:42:09.110Z,7.80
2019-03-30T07:44:42.683Z,8.10
2019-03-30T07:47:16.312Z,8.17
2019-03-30T07:49:49.876Z,8.47
2019-03-30T07:52:23.492Z,8.13
2019-03-30T07:54:57.056Z,8.37
2019-03-30T07:57:30.592Z,8.83
2019-03-30T08:00:04.333Z,8.13
2019-03-30T08:02:37.910Z,8.80
2019-03-30T08:05:11.586Z,8.47
2019-03-30T08:07:45.117Z,7.83
2019-03-30T08:10:18.775Z,8.87
2019-03-30T08:12:52.313Z,9.33
2019-03-30T08:15:26.008Z,9.13
2019-03-30T08:17:59.629Z,8.60
2019-03-30T08:20:33.206Z,8.77
2019-03-30T08:23:06.945Z,8.60
2019-03-30T08:25:40.604Z,9.13
2019-03-30T08:28:13.532Z,9.10
2019-03-30T08:30:47.097Z,9.43
2019-03-30T08:33:20.641Z,9.17
2019-03-30T08:35:54.217Z,9.97
2019-03-30T08:38:27.766Z,9.13
2019-03-30T08:41:01.350Z,8.83
2019-03-30T08:43:34.913Z,8.93
2019-03-30T08:46:08.511Z,9.33
2019-03-30T08:48:42.121Z,9.30
2019-03-30T08:51:15.717Z,9.60
2019-03-30T08:53:54.923Z,9.27
2019-03-30T08:56:27.857Z,9.67
2019-03-30T08:59:00.328Z,9.80
2019-03-30T09:01:33.953Z,8.50
2019-03-30T09:04:07.612Z,8.67
2019-03-30T09:06:41.249Z,8.63
2019-03-30T09:09:14.880Z,8.03
2019-03-30T09:11:48.537Z,8.07
2019-03-30T09:14:22.169Z,8.00
2019-03-30T09:16:55.759Z,8.53
2019-03-30T09:19:29.415Z,9.33
2019-03-30T09:22:03.084Z,8.07
2019-03-30T09:24:36.741Z,10.53
2019-03-30T09:27:10.340Z,10.47
2019-03-30T09:29:43.983Z,7.63
2019-03-30T09:32:18.542Z,8.97
2019-03-30T09:34:52.102Z,8.07
2019-03-30T09:37:25.668Z,8.07
2019-03-30T09:39:59.230Z,8.97
2019-03-30T09:42:32.884Z,9.67
2019-03-30T09:45:06.482Z,7.77
2019-03-30T09:47:40.091Z,7.70
2019-03-30T09:50:13.725Z,6.50
2019-03-30T09:52:47.410Z,7.73
2019-03-30T09:55:21.030Z,7.97
2019-03-30T09:57:54.693Z,7.77
2019-03-30T10:00:28.257Z,7.93
2019-03-30T10:03:01.901Z,8.00
2019-03-30T10:05:35.575Z,7.20
2019-03-30T10:08:09.231Z,7.03
2019-03-30T10:10:42.861Z,7.17
2019-03-30T10:13:16.549Z,7.60
2019-03-30T10:15:50.163Z,7.30
2019-03-30T10:18:23.869Z,6.30
2019-03-30T10:20:57.541Z,6.00
2019-03-30T10:23:31.179Z,5.80
2019-03-30T10:26:04.816Z,5.97
2019-03-30T10:28:38.739Z,6.50
2019-03-30T10:31:12.381Z,6.27
2019-03-30T10:33:45.932Z,6.00
2019-03-30T10:36:19.480Z,5.03
2019-03-30T10:38:53.051Z,5.60
2019-03-30T10:41:26.693Z,5.70
2019-03-30T10:44:00.256Z,5.10
2019-03-30T10:46:33.932Z,6.37
2019-03-30T10:49:07.540Z,5.53
2019-03-30T10:51:41.136Z,5.63
2019-03-30T10:54:14.788Z,5.83
2019-03-30T10:56:48.417Z,5.63
2019-03-30T10:59:21.965Z,5.57
2019-03-30T11:01:55.614Z,5.37
2019-03-30T11:04:29.240Z,4.83
2019-03-30T11:07:02.832Z,5.43
2019-03-30T11:09:36.555Z,6.00
2019-03-30T11:12:10.218Z,5.77
2019-03-30T11:14:43.818Z,5.47
2019-03-30T11:17:19.366Z,5.93
2019-03-30T11:19:53.642Z,6.03
2019-03-30T11:22:27.242Z,6.23
2019-03-30T11:25:07.131Z,6.13
2019-03-30T11:27:36.142Z,5.27
2019-03-30T11:30:09.802Z,5.97
2019-03-30T11:32:43.853Z,5.93
2019-03-30T11:35:17.498Z,6.27
2019-03-30T11:37:51.052Z,6.07
2019-03-30T11:40:24.678Z,6.20
2019-03-30T11:42:58.304Z,5.90
2019-03-30T11:45:31.876Z,6.40
2019-03-30T11:48:05.443Z,5.60
2019-03-30T11:50:39.066Z,6.23
2019-03-30T11:53:12.720Z,6.20
2019-03-30T11:55:46.285Z,5.63
2019-03-30T11:58:20.001Z,5.87
2019-03-30T12:00:53.591Z,5.50
2019-03-30T12:03:27.305Z,6.30
2019-03-30T12:06:00.857Z,6.40
2019-03-30T12:08:34.425Z,7.07
2019-03-30T12:11:07.972Z,6.33
2019-03-30T12:13:41.548Z,6.33
2019-03-30T12:16:15.145Z,5.73
2019-03-30T12:18:48.753Z,6.07
2019-03-30T12:21:22.401Z,5.67
2019-03-30T12:23:56.029Z,6.10
2019-03-30T12:26:29.625Z,6.67
2019-03-30T12:29:03.314Z,5.90
2019-03-30T12:31:36.993Z,6.13
2019-03-30T12:34:13.066Z,5.67
2019-03-30T12:36:45.880Z,5.87
2019-03-30T12:39:19.465Z,6.10
2019-03-30T12:41:53.104Z,5.97
2019-03-30T12:44:27.586Z,7.03
2019-03-30T12:47:01.141Z,6.23
2019-03-30T12:49:34.857Z,5.97
2019-03-30T12:52:08.430Z,5.73
2019-03-30T12:54:42.028Z,5.97
2019-03-30T12:57:16.654Z,5.87
2019-03-30T12:59:50.261Z,5.73
2019-03-30T13:02:23.835Z,5.97
2019-03-30T13:04:57.748Z,5.97
2019-03-30T13:07:31.346Z,6.00
2019-03-30T13:10:06.571Z,6.10
2019-03-30T13:12:40.196Z,6.27
2019-03-30T13:15:13.850Z,6.12
2019-03-30T13:17:47.513Z,5.77
2019-03-30T13:20:21.100Z,5.97
2019-03-30T13:22:54.720Z,6.27
2019-03-30T13:25:28.301Z,6.40
2019-03-30T13:28:01.950Z,6.47
2019-03-30T13:30:35.583Z,7.07
2019-03-30T13:33:09.272Z,7.03
2019-03-30T13:35:42.913Z,6.83
2019-03-30T13:38:16.542Z,5.57
2019-03-30T13:40:50.213Z,6.00
2019-03-30T13:43:23.769Z,6.37
2019-03-30T13:45:57.441Z,5.47
2019-03-30T13:48:31.056Z,6.07
2019-03-30T13:51:04.637Z,5.77
2019-03-30T13:53:38.252Z,5.80
2019-03-30T13:56:17.417Z,6.57
2019-03-30T13:58:47.108Z,6.37
2019-03-30T14:01:20.668Z,6.63
2019-03-30T14:03:54.225Z,6.50
2019-03-30T14:06:27.792Z,5.77
2019-03-30T14:09:01.361Z,6.40
2019-03-30T14:11:34.987Z,6.50
2019-03-30T14:14:08.595Z,6.50
2019-03-30T14:16:42.300Z,6.43
2019-03-30T14:19:15.893Z,6.57
2019-03-30T14:21:49.470Z,6.30
2019-03-30T14:24:23.104Z,7.17
2019-03-30T14:26:56.753Z,7.40
2019-03-30T14:29:30.379Z,6.90
2019-03-30T14:32:03.960Z,6.60
2019-03-30T14:34:37.604Z,6.33
2019-03-30T14:37:11.177Z,6.00
2019-03-30T14:39:44.808Z,7.00
2019-03-30T14:42:19.356Z,6.97
2019-03-30T14:44:52.968Z,6.00
2019-03-30T14:47:26.723Z,7.30
2019-03-30T14:50:00.406Z,6.17
2019-03-30T14:52:34.003Z,7.33
2019-03-30T14:55:07.596Z,9.67
2019-03-30T14:57:41.253Z,9.47
2019-03-30T15:00:16.482Z,9.20
2019-03-30T15:02:50.108Z,10.17
2019-03-30T15:05:23.684Z,10.07
2019-03-30T15:07:57.309Z,10.37
2019-03-30T15:10:30.908Z,10.13
2019-03-30T15:13:04.558Z,10.63
2019-03-30T15:15:38.111Z,9.90
2019-03-30T15:18:11.742Z,9.90
2019-03-30T15:20:45.362Z,10.30
2019-03-30T15:23:18.925Z,9.27
2019-03-30T15:25:52.511Z,9.53
2019-03-30T15:28:26.172Z,9.57
2019-03-30T15:30:59.718Z,8.93
2019-03-30T15:33:33.369Z,8.47
2019-03-30T15:36:06.928Z,10.37
2019-03-30T15:38:40.497Z,9.43
2019-03-30T15:41:14.173Z,9.40
2019-03-30T15:43:47.816Z,9.37
2019-03-30T15:46:21.444Z,9.27
2019-03-30T15:48:55.024Z,8.90
2019-03-30T15:51:28.652Z,9.60
2019-03-30T15:54:02.259Z,8.87
2019-03-30T15:56:35.913Z,8.03
2019-03-30T15:59:09.549Z,8.60
2019-03-30T16:01:43.195Z,8.73
2019-03-30T16:04:16.766Z,8.63
2019-03-30T16:06:50.328Z,9.90
2019-03-30T16:09:23.978Z,8.43
2019-03-30T16:11:57.512Z,9.50
2019-03-30T16:14:31.076Z,9.77
2019-03-30T16:17:04.733Z,9.97
2019-03-30T16:19:38.351Z,8.73
2019-03-30T16:22:20.862Z,9.30
2019-03-30T16:24:54.495Z,8.27
2019-03-30T16:27:29.509Z,8.60
2019-03-30T16:30:03.609Z,8.13
2019-03-30T16:32:37.247Z,9.60
2019-03-30T16:35:10.961Z,9.60
2019-03-30T16:37:44.605Z,10.23
2019-03-30T16:40:18.186Z,9.13
2019-03-30T16:42:51.745Z,9.60
2019-03-30T16:45:25.399Z,10.03
2019-03-30T16:47:59.055Z,9.47
2019-03-30T16:50:32.796Z,9.50
2019-03-30T16:53:06.429Z,8.90
2019-03-30T16:55:40.021Z,9.73
2019-03-30T16:58:13.653Z,10.07
2019-03-30T17:00:56.482Z,9.27
2019-03-30T17:03:22.684Z,10.43
2019-03-30T17:05:56.376Z,9.10
2019-03-30T17:08:29.999Z,9.40
2019-03-30T17:11:03.605Z,9.27
2019-03-30T17:13:37.215Z,9.70
2019-03-30T17:16:10.905Z,9.23
2019-03-30T17:18:44.480Z,9.00
2019-03-30T17:21:18.064Z,9.70
2019-03-30T17:23:51.715Z,8.80
2019-03-30T17:26:25.361Z,9.60
2019-03-30T17:28:58.932Z,9.53
2019-03-30T17:31:32.496Z,9.87
2019-03-30T17:34:06.077Z,9.53
2019-03-30T17:36:39.729Z,10.30
2019-03-30T17:39:13.277Z,10.27
2019-03-30T17:41:47.024Z,10.72
2019-03-30T17:44:20.604Z,10.00
2019-03-30T17:46:54.259Z,9.77
2019-03-30T17:49:27.888Z,9.37
2019-03-30T17:52:01.537Z,10.17
2019-03-30T17:54:35.137Z,10.60
2019-03-30T17:57:08.728Z,10.67
2019-03-30T17:59:42.343Z,10.53
2019-03-30T18:02:15.967Z,11.43
2019-03-30T18:04:49.559Z,11.03
2019-03-30T18:07:23.243Z,11.80
2019-03-30T18:09:56.873Z,11.47
2019-03-30T18:12:30.458Z,10.67
2019-03-30T18:15:04.504Z,10.27
2019-03-30T18:17:38.129Z,9.23
2019-03-30T18:20:11.752Z,9.67
2019-03-30T18:22:45.322Z,10.23
2019-03-30T18:25:18.875Z,10.80
2019-03-30T18:27:52.536Z,11.17
2019-03-30T18:30:37.156Z,11.67
2019-03-30T18:33:10.729Z,11.73
2019-03-30T18:35:44.327Z,10.37
2019-03-30T18:38:17.987Z,10.83
2019-03-30T18:40:51.620Z,10.27
2019-03-30T18:43:25.455Z,11.10
2019-03-30T18:45:59.093Z,11.03
2019-03-30T18:48:32.642Z,11.33
2019-03-30T18:51:06.224Z,10.70
2019-03-30T18:53:39.760Z,12.47
2019-03-30T18:56:13.356Z,12.50
2019-03-30T18:58:46.995Z,12.30
2019-03-30T19:01:20.644Z,11.90
2019-03-30T19:03:54.183Z,11.60
2019-03-30T19:06:27.749Z,11.97
2019-03-30T19:09:01.357Z,12.90
2019-03-30T19:11:35.038Z,12.20
2019-03-30T19:14:08.669Z,12.60
2019-03-30T19:16:42.286Z,13.17
2019-03-30T19:19:15.941Z,13.00
2019-03-30T19:21:49.633Z,13.07
2019-03-30T19:24:23.277Z,13.83
2019-03-30T19:26:56.929Z,14.00
2019-03-30T19:29:30.477Z,14.53
2019-03-30T19:32:04.041Z,14.23
2019-03-30T19:34:37.700Z,14.33
2019-03-30T19:37:11.329Z,15.07
2019-03-30T19:39:44.888Z,14.67
2019-03-30T19:42:18.550Z,14.70
2019-03-30T19:44:52.127Z,13.77
2019-03-30T19:47:25.784Z,15.10
2019-03-30T19:49:59.354Z,15.70
2019-03-30T19:52:39.687Z,15.93
2019-03-30T19:55:09.636Z,16.13
2019-03-30T19:57:43.226Z,18.23
2019-03-30T20:00:16.824Z,19.93
2019-03-30T20:02:50.435Z,20.13
2019-03-30T20:05:24.060Z,24.87
2019-03-30T20:08:11.231Z,22.97
2019-03-30T20:10:32.916Z,21.27
2019-03-30T20:13:09.226Z,20.13
2019-03-30T20:15:41.832Z,17.50
2019-03-30T20:18:15.421Z,15.20
2019-03-30T20:20:48.975Z,16.83
2019-03-30T20:23:22.538Z,17.60
2019-03-30T20:25:56.167Z,16.27
2019-03-30T20:28:29.833Z,16.87
2019-03-30T20:31:03.466Z,16.13
2019-03-30T20:33:37.054Z,16.33
2019-03-30T20:36:10.699Z,18.47
2019-03-30T20:38:44.333Z,18.43
2019-03-30T20:41:17.931Z,19.27
2019-03-30T20:43:51.569Z,19.70
2019-03-30T20:46:25.272Z,19.03
2019-03-30T20:48:58.857Z,19.43
2019-03-30T20:51:32.414Z,18.90
2019-03-30T20:54:06.076Z,20.30
2019-03-30T20:56:39.683Z,19.00
2019-03-30T20:59:13.252Z,17.83
2019-03-30T21:01:46.875Z,18.47
2019-03-30T21:04:20.462Z,19.32
2019-03-30T21:06:54.080Z,18.87
2019-03-30T21:09:27.757Z,18.23
2019-03-30T21:12:01.406Z,17.50
2019-03-30T21:14:35.106Z,18.10
2019-03-30T21:17:09.089Z,17.90
2019-03-30T21:19:42.763Z,18.30
2019-03-30T21:22:16.398Z,19.73
2019-03-30T21:24:49.976Z,17.70
2019-03-30T21:27:23.541Z,18.07
2019-03-30T21:29:57.134Z,19.13
2019-03-30T21:32:30.761Z,18.10
2019-03-30T21:35:05.206Z,18.80
2019-03-30T21:37:38.850Z,18.03
2019-03-30T21:40:12.517Z,18.20
2019-03-30T21:42:46.145Z,20.17
2019-03-30T21:45:19.824Z,20.73
2019-03-30T21:47:53.452Z,19.97
2019-03-30T21:50:27.097Z,19.50
2019-03-30T21:53:00.642Z,20.50
2019-03-30T21:55:34.213Z,19.97
2019-03-30T21:58:07.777Z,21.37
2019-03-30T22:00:41.369Z,20.87
2019-03-30T22:03:14.996Z,20.10
2019-03-30T22:05:48.576Z,22.60
2019-03-30T22:08:22.224Z,26.03
2019-03-30T22:10:55.822Z,25.13
2019-03-30T22:13:29.564Z,23.60
2019-03-30T22:16:03.243Z,22.03
2019-03-30T22:18:36.993Z,23.73
2019-03-30T22:21:10.632Z,22.93
2019-03-30T22:23:44.199Z,23.40
2019-03-30T22:26:17.842Z,22.03
2019-03-30T22:28:51.480Z,20.53
2019-03-30T22:31:25.121Z,20.80
2019-03-30T22:33:58.711Z,21.77
2019-03-30T22:36:32.366Z,22.23
2019-03-30T22:39:06.827Z,20.20
2019-03-30T22:41:40.505Z,19.63
2019-03-30T22:44:14.085Z,20.90
2019-03-30T22:46:47.745Z,23.60
2019-03-30T22:49:21.308Z,21.97
2019-03-30T22:51:54.958Z,25.17
2019-03-30T22:54:28.607Z,23.33
2019-03-30T22:57:02.258Z,24.07
2019-03-30T22:59:35.891Z,24.37
2019-03-30T23:02:09.467Z,23.60
2019-03-30T23:04:43.104Z,22.33
2019-03-30T23:07:16.789Z,24.30
2019-03-30T23:09:50.353Z,24.37
2019-03-30T23:12:24.014Z,22.97
2019-03-30T23:14:57.576Z,24.37
2019-03-30T23:17:31.252Z,21.60
2019-03-30T23:20:05.129Z,22.30
2019-03-30T23:22:38.719Z,21.97
2019-03-30T23:25:12.338Z,24.13
2019-03-30T23:27:45.912Z,21.60
2019-03-30T23:30:19.464Z,22.83
2019-03-30T23:32:53.052Z,22.43
2019-03-30T23:35:26.663Z,22.00
2019-03-30T23:38:00.285Z,21.73
2019-03-30T23:40:33.785Z,20.43
2019-03-30T23:43:07.245Z,21.70
2019-03-30T23:45:40.672Z,19.70
2019-03-30T23:48:14.053Z,23.93
2019-03-30T23:50:47.473Z,22.93
2019-03-30T23:53:20.869Z,21.07
2019-03-30T23:55:54.302Z,21.17
2019-03-30T23:58:27.828Z,21.37
